createdAt,value
2023-03-27T00:02:08.980Z,60.10
2023-03-27T00:04:35.921Z,60.39
2023-03-27T00:07:04.384Z,60.30
2023-03-27T00:09:32.403Z,60.35
2023-03-27T00:12:01.084Z,60.44
2023-03-27T00:14:28.001Z,60.45
2023-03-27T00:16:54.914Z,60.57
2023-03-27T00:19:21.859Z,60.49
2023-03-27T00:21:49.204Z,60.60
2023-03-27T00:24:16.259Z,60.47
2023-03-27T00:26:43.326Z,60.44
2023-03-27T00:29:10.671Z,60.62
2023-03-27T00:31:37.462Z,60.47
2023-03-27T00:34:04.205Z,60.68
2023-03-27T00:36:31.543Z,60.83
2023-03-27T00:38:58.473Z,60.71
2023-03-27T00:41:26.458Z,60.87
2023-03-27T00:43:54.255Z,60.83
2023-03-27T00:46:32.054Z,61.17
2023-03-27T00:49:00.217Z,61.09
2023-03-27T00:51:26.964Z,60.86
2023-03-27T00:53:54.254Z,61.11
2023-03-27T00:56:21.962Z,61.27
2023-03-27T00:59:00.905Z,61.35
2023-03-27T01:01:28.570Z,61.27
2023-03-27T01:03:55.918Z,61.37
2023-03-27T01:06:23.089Z,61.62
2023-03-27T01:08:49.792Z,61.74
2023-03-27T01:11:38.451Z,61.88
2023-03-27T01:14:08.049Z,61.87
2023-03-27T01:17:02.801Z,62.02
2023-03-27T01:19:45.339Z,62.23
2023-03-27T01:22:30.830Z,62.11
2023-03-27T01:25:16.219Z,62.12
2023-03-27T01:28:04.699Z,61.99
2023-03-27T01:30:59.459Z,61.95
2023-03-27T01:34:11.718Z,61.88
2023-03-27T01:37:06.737Z,61.86
2023-03-27T01:39:40.378Z,61.96
2023-03-27T01:42:16.754Z,62.19
2023-03-27T01:44:49.751Z,62.16
2023-03-27T01:47:55.476Z,62.21
2023-03-27T01:50:35.973Z,62.32
2023-03-27T01:53:05.968Z,62.34
2023-03-27T01:55:36.165Z,62.42
2023-03-27T01:58:08.540Z,62.71
2023-03-27T02:00:51.879Z,62.51
2023-03-27T02:03:27.387Z,62.77
2023-03-27T02:06:06.780Z,62.62
2023-03-27T02:08:50.379Z,62.57
2023-03-27T02:11:17.400Z,62.44
2023-03-27T02:13:48.154Z,62.51
2023-03-27T02:16:17.791Z,62.53
2023-03-27T02:18:47.894Z,62.44
2023-03-27T02:21:15.426Z,62.38
2023-03-27T02:23:42.481Z,62.62
2023-03-27T02:26:12.188Z,62.54
2023-03-27T02:28:41.810Z,62.68
2023-03-27T02:31:35.069Z,62.79
2023-03-27T02:34:08.156Z,62.80
2023-03-27T02:36:38.280Z,62.63
2023-03-27T02:39:14.001Z,62.83
2023-03-27T02:42:00.571Z,63.06
2023-03-27T02:44:47.382Z,63.24
2023-03-27T02:47:25.957Z,63.30
2023-03-27T02:49:54.154Z,63.83
2023-03-27T02:52:27.320Z,64.11
2023-03-27T02:54:56.865Z,64.34
2023-03-27T02:57:26.677Z,64.10
2023-03-27T02:59:55.963Z,64.10
2023-03-27T03:02:29.781Z,64.17
2023-03-27T03:05:09.378Z,64.12
2023-03-27T03:07:38.338Z,64.22
2023-03-27T03:10:09.462Z,64.12
2023-03-27T03:12:36.598Z,64.04
2023-03-27T03:15:03.565Z,63.83
2023-03-27T03:17:30.337Z,63.68
2023-03-27T03:19:57.288Z,63.61
2023-03-27T03:22:24.097Z,63.59
2023-03-27T03:24:51.169Z,63.61
2023-03-27T03:27:21.277Z,63.42
2023-03-27T03:29:48.687Z,63.38
2023-03-27T03:32:15.712Z,63.05
2023-03-27T03:34:46.889Z,63.87
2023-03-27T03:37:13.598Z,64.57
2023-03-27T03:39:40.338Z,65.06
2023-03-27T03:42:07.265Z,65.37
2023-03-27T03:44:34.682Z,65.21
2023-03-27T03:47:01.529Z,65.19
2023-03-27T03:49:28.328Z,64.87
2023-03-27T03:52:04.268Z,64.60
2023-03-27T03:54:33.177Z,64.46
2023-03-27T03:57:00.161Z,64.31
2023-03-27T03:59:27.085Z,64.35
2023-03-27T04:01:54.446Z,63.82
2023-03-27T04:04:21.321Z,63.96
2023-03-27T04:06:48.146Z,63.94
2023-03-27T04:09:15.053Z,64.06
2023-03-27T04:11:42.018Z,63.79
2023-03-27T04:14:08.822Z,63.97
2023-03-27T04:16:35.745Z,64.12
2023-03-27T04:19:03.316Z,64.08
2023-03-27T04:21:30.269Z,64.10
2023-03-27T04:24:02.886Z,64.34
2023-03-27T04:26:29.948Z,64.14
2023-03-27T04:28:56.883Z,64.30
2023-03-27T04:31:23.947Z,64.52
2023-03-27T04:33:52.559Z,64.75
2023-03-27T04:36:19.671Z,64.64
2023-03-27T04:38:48.155Z,65.02
2023-03-27T04:41:14.968Z,64.94
2023-03-27T04:43:42.087Z,65.25
2023-03-27T04:46:09.085Z,65.41
2023-03-27T04:48:39.029Z,65.40
2023-03-27T04:51:06.830Z,65.62
2023-03-27T04:53:36.270Z,65.40
2023-03-27T04:56:03.584Z,65.42
2023-03-27T04:58:30.397Z,65.23
2023-03-27T05:00:58.027Z,65.13
2023-03-27T05:03:26.193Z,64.96
2023-03-27T05:05:53.863Z,65.20
2023-03-27T05:08:20.769Z,65.00
2023-03-27T05:10:47.506Z,65.00
2023-03-27T05:13:14.347Z,65.08
2023-03-27T05:15:41.497Z,65.05
2023-03-27T05:18:09.202Z,65.15
2023-03-27T05:20:36.415Z,65.31
2023-03-27T05:23:03.427Z,65.62
2023-03-27T05:25:31.145Z,65.54
2023-03-27T05:27:58.224Z,65.79
2023-03-27T05:30:26.460Z,65.85
2023-03-27T05:32:53.756Z,65.83
2023-03-27T05:35:22.558Z,65.77
2023-03-27T05:37:50.388Z,65.67
2023-03-27T05:40:20.676Z,65.39
2023-03-27T05:42:47.731Z,64.90
2023-03-27T05:45:14.664Z,64.79
2023-03-27T05:47:46.502Z,64.61
2023-03-27T05:50:14.627Z,64.49
2023-03-27T05:52:41.931Z,64.42
2023-03-27T05:55:09.216Z,64.49
2023-03-27T05:57:39.765Z,64.37
2023-03-27T06:00:16.035Z,64.37
2023-03-27T06:02:43.708Z,64.56
2023-03-27T06:05:13.513Z,64.49
2023-03-27T06:07:42.919Z,64.46
2023-03-27T06:10:14.152Z,64.38
2023-03-27T06:12:41.870Z,64.53
2023-03-27T06:15:09.641Z,64.80
2023-03-27T06:17:36.688Z,65.00
2023-03-27T06:20:11.049Z,64.55
2023-03-27T06:22:51.952Z,64.75
2023-03-27T06:25:20.380Z,64.65
2023-03-27T06:27:50.336Z,64.72
2023-03-27T06:30:18.995Z,64.87
2023-03-27T06:32:47.001Z,65.77
2023-03-27T06:35:14.814Z,65.84
2023-03-27T06:37:42.727Z,65.65
2023-03-27T06:40:10.576Z,65.85
2023-03-27T06:42:38.610Z,66.02
2023-03-27T06:45:06.085Z,65.96
2023-03-27T06:47:36.349Z,66.18
2023-03-27T06:50:07.642Z,65.92
2023-03-27T06:52:34.375Z,66.05
2023-03-27T06:55:03.278Z,66.22
2023-03-27T06:57:30.227Z,66.09
2023-03-27T06:59:59.603Z,65.85
2023-03-27T07:02:27.681Z,65.81
2023-03-27T07:05:04.259Z,65.44
2023-03-27T07:07:32.300Z,65.51
2023-03-27T07:09:59.209Z,65.28
2023-03-27T07:12:26.338Z,65.21
2023-03-27T07:14:53.178Z,64.74
2023-03-27T07:17:19.940Z,64.92
2023-03-27T07:19:46.846Z,64.88
2023-03-27T07:22:13.744Z,64.24
2023-03-27T07:24:41.618Z,63.94
2023-03-27T07:27:08.427Z,63.41
2023-03-27T07:29:37.177Z,63.61
2023-03-27T07:32:08.078Z,62.83
2023-03-27T07:34:36.220Z,62.20
2023-03-27T07:37:03.137Z,61.02
2023-03-27T07:39:30.011Z,60.71
2023-03-27T07:41:57.013Z,60.46
2023-03-27T07:44:23.917Z,59.64
2023-03-27T07:46:52.800Z,59.77
2023-03-27T07:49:19.646Z,59.84
2023-03-27T07:52:07.039Z,59.43
2023-03-27T07:54:33.828Z,57.83
2023-03-27T07:57:01.397Z,57.24
2023-03-27T07:59:28.370Z,57.45
2023-03-27T08:01:55.643Z,56.95
2023-03-27T08:04:22.498Z,56.27
2023-03-27T08:06:51.760Z,56.19
2023-03-27T08:09:18.518Z,55.95
2023-03-27T08:11:45.306Z,56.20
2023-03-27T08:14:12.206Z,55.95
2023-03-27T08:16:39.350Z,55.81
2023-03-27T08:19:06.836Z,55.86
2023-03-27T08:21:34.371Z,55.84
2023-03-27T08:24:04.918Z,54.75
2023-03-27T08:26:32.296Z,53.82
2023-03-27T08:28:59.530Z,52.69
2023-03-27T08:31:28.011Z,52.26
2023-03-27T08:33:56.790Z,52.46
2023-03-27T08:36:23.756Z,52.13
2023-03-27T08:38:50.994Z,51.14
2023-03-27T08:41:27.706Z,51.34
2023-03-27T08:43:56.328Z,51.31
2023-03-27T08:46:29.184Z,50.12
2023-03-27T08:49:16.807Z,49.28
2023-03-27T08:51:47.867Z,48.02
2023-03-27T08:54:16.900Z,47.50
2023-03-27T08:56:44.283Z,47.18
2023-03-27T08:59:17.336Z,47.37
2023-03-27T09:01:54.974Z,46.35
2023-03-27T09:04:52.125Z,44.70
2023-03-27T09:07:40.836Z,44.79
2023-03-27T09:10:27.505Z,44.54
2023-03-27T09:13:08.757Z,43.44
2023-03-27T09:15:53.502Z,43.98
2023-03-27T09:18:36.780Z,42.55
2023-03-27T09:21:26.012Z,41.82
2023-03-27T09:23:55.360Z,42.43
2023-03-27T09:26:25.738Z,42.40
2023-03-27T09:29:20.498Z,40.85
2023-03-27T09:31:51.834Z,40.64
2023-03-27T09:34:29.626Z,41.20
2023-03-27T09:36:58.343Z,40.56
2023-03-27T09:39:32.198Z,40.32
2023-03-27T09:42:09.257Z,40.33
2023-03-27T09:44:37.937Z,39.69
2023-03-27T09:47:15.744Z,39.38
2023-03-27T09:49:45.699Z,39.36
2023-03-27T09:52:34.469Z,38.38
2023-03-27T09:55:03.201Z,38.86
2023-03-27T09:57:34.154Z,38.64
2023-03-27T10:00:31.374Z,38.77
2023-03-27T10:03:11.825Z,38.65
2023-03-27T10:05:39.063Z,37.80
2023-03-27T10:08:26.060Z,37.97
2023-03-27T10:10:58.364Z,37.85
2023-03-27T10:13:27.424Z,37.23
2023-03-27T10:16:01.370Z,37.95
2023-03-27T10:18:33.260Z,37.33
2023-03-27T10:21:02.570Z,37.84
2023-03-27T10:23:39.863Z,37.50
2023-03-27T10:26:08.593Z,37.11
2023-03-27T10:28:36.595Z,35.94
2023-03-27T10:31:11.543Z,36.11
2023-03-27T10:33:40.084Z,35.97
2023-03-27T10:36:08.351Z,35.40
2023-03-27T10:38:36.756Z,36.24
2023-03-27T10:41:14.078Z,36.11
2023-03-27T10:43:41.782Z,35.81
2023-03-27T10:46:12.003Z,35.70
2023-03-27T10:49:17.508Z,35.35
2023-03-27T10:51:59.624Z,35.31
2023-03-27T10:54:35.534Z,34.90
2023-03-27T10:57:17.503Z,34.42
2023-03-27T10:59:46.015Z,33.40
2023-03-27T11:02:35.055Z,33.97
2023-03-27T11:05:08.490Z,33.88
2023-03-27T11:07:44.280Z,34.58
2023-03-27T11:10:18.067Z,33.20
2023-03-27T11:12:51.063Z,32.97
2023-03-27T11:15:22.448Z,33.58
2023-03-27T11:18:10.850Z,33.86
2023-03-27T11:20:44.532Z,33.90
2023-03-27T11:23:18.560Z,33.04
2023-03-27T11:25:47.527Z,32.18
2023-03-27T11:28:31.398Z,31.54
2023-03-27T11:31:13.020Z,30.51
2023-03-27T11:33:52.342Z,30.57
2023-03-27T11:36:23.090Z,31.95
2023-03-27T11:38:54.892Z,30.74
2023-03-27T11:41:21.782Z,30.01
2023-03-27T11:43:48.677Z,30.60
2023-03-27T11:46:24.480Z,30.48
2023-03-27T11:49:00.931Z,30.18
2023-03-27T11:51:33.634Z,28.19
2023-03-27T11:54:16.593Z,27.78
2023-03-27T11:56:52.879Z,27.95
2023-03-27T11:59:24.639Z,27.37
2023-03-27T12:01:59.756Z,27.55
2023-03-27T12:04:50.820Z,28.12
2023-03-27T12:07:35.160Z,27.37
2023-03-27T12:10:32.276Z,27.63
2023-03-27T12:12:58.947Z,27.50
2023-03-27T12:15:41.865Z,26.75
2023-03-27T12:18:51.184Z,26.77
2023-03-27T12:21:29.567Z,25.51
2023-03-27T12:24:19.862Z,25.96
2023-03-27T12:26:49.867Z,26.24
2023-03-27T12:29:32.039Z,25.80
2023-03-27T12:32:35.849Z,25.48
2023-03-27T12:35:09.874Z,24.91
2023-03-27T12:37:48.145Z,24.95
2023-03-27T12:40:39.139Z,24.33
2023-03-27T12:43:21.024Z,22.62
2023-03-27T12:46:23.647Z,22.94
2023-03-27T12:49:29.345Z,22.98
2023-03-27T12:52:02.834Z,21.55
2023-03-27T12:54:32.884Z,21.79
2023-03-27T12:57:16.135Z,21.10
2023-03-27T12:59:49.178Z,21.05
2023-03-27T13:02:21.775Z,20.21
2023-03-27T13:05:23.993Z,19.97
2023-03-27T13:08:03.331Z,20.79
2023-03-27T13:11:14.844Z,20.49
2023-03-27T13:13:53.823Z,20.60
2023-03-27T13:16:20.919Z,20.08
2023-03-27T13:18:48.282Z,20.17
2023-03-27T13:21:36.297Z,20.52
2023-03-27T13:24:30.997Z,20.18
2023-03-27T13:27:36.715Z,19.60
2023-03-27T13:30:03.855Z,19.05
2023-03-27T13:32:40.330Z,19.95
2023-03-27T13:35:19.468Z,19.83
2023-03-27T13:37:49.258Z,20.19
2023-03-27T13:40:26.780Z,20.58
2023-03-27T13:43:22.901Z,22.94
2023-03-27T13:45:57.592Z,25.31
2023-03-27T13:48:27.620Z,26.96
2023-03-27T13:51:16.922Z,28.21
2023-03-27T13:54:21.311Z,29.44
2023-03-27T13:56:59.250Z,30.26
2023-03-27T13:59:37.702Z,30.70
2023-03-27T14:02:36.139Z,30.80
2023-03-27T14:05:36.624Z,31.47
2023-03-27T14:08:41.761Z,31.98
2023-03-27T14:11:27.010Z,32.40
2023-03-27T14:14:06.834Z,32.66
2023-03-27T14:16:52.149Z,33.57
2023-03-27T14:19:56.618Z,33.41
2023-03-27T14:22:28.111Z,33.92
2023-03-27T14:25:00.669Z,34.17
2023-03-27T14:27:27.946Z,34.39
2023-03-27T14:30:14.731Z,35.00
2023-03-27T14:32:43.262Z,34.94
2023-03-27T14:35:23.253Z,35.42
2023-03-27T14:37:56.101Z,35.22
2023-03-27T14:40:27.472Z,35.39
2023-03-27T14:42:55.555Z,35.46
2023-03-27T14:45:27.366Z,35.74
2023-03-27T14:48:00.608Z,35.81
2023-03-27T14:50:27.541Z,35.87
2023-03-27T14:52:54.559Z,36.14
2023-03-27T14:55:23.179Z,36.18
2023-03-27T14:57:54.126Z,36.46
2023-03-27T15:00:22.170Z,36.82
2023-03-27T15:02:49.475Z,36.96
2023-03-27T15:05:18.265Z,37.40
2023-03-27T15:07:49.124Z,37.33
2023-03-27T15:10:22.590Z,37.32
2023-03-27T15:12:49.520Z,37.90
2023-03-27T15:15:39.198Z,38.31
2023-03-27T15:18:12.754Z,38.46
2023-03-27T15:20:40.030Z,38.39
2023-03-27T15:23:06.757Z,38.47
2023-03-27T15:25:37.297Z,38.40
2023-03-27T15:28:10.808Z,38.52
2023-03-27T15:30:40.735Z,38.53
2023-03-27T15:33:08.567Z,38.19
2023-03-27T15:35:37.221Z,38.11
2023-03-27T15:38:05.394Z,38.21
2023-03-27T15:40:42.623Z,38.29
2023-03-27T15:43:18.364Z,38.39
2023-03-27T15:45:54.589Z,38.59
2023-03-27T15:48:23.323Z,39.11
2023-03-27T15:51:19.958Z,39.16
2023-03-27T15:53:51.041Z,39.05
2023-03-27T15:56:29.789Z,38.88
2023-03-27T15:59:00.154Z,38.91
2023-03-27T16:01:36.476Z,38.87
2023-03-27T16:04:13.914Z,38.72
2023-03-27T16:06:46.276Z,38.90
2023-03-27T16:09:28.987Z,39.09
2023-03-27T16:11:57.298Z,39.50
2023-03-27T16:14:31.940Z,39.16
2023-03-27T16:17:20.832Z,39.27
2023-03-27T16:19:57.417Z,39.38
2023-03-27T16:22:27.814Z,39.33
2023-03-27T16:24:56.710Z,39.44
2023-03-27T16:27:25.299Z,39.53
2023-03-27T16:29:52.531Z,39.43
2023-03-27T16:32:20.032Z,39.44
2023-03-27T16:34:51.596Z,39.82
2023-03-27T16:37:20.342Z,39.67
2023-03-27T16:39:47.196Z,39.50
2023-03-27T16:42:16.188Z,39.63
2023-03-27T16:44:43.949Z,39.40
2023-03-27T16:47:11.378Z,39.48
2023-03-27T16:49:38.387Z,39.81
2023-03-27T16:52:05.456Z,39.81
2023-03-27T16:54:32.273Z,40.06
2023-03-27T16:56:59.019Z,39.72
2023-03-27T16:59:26.640Z,39.60
2023-03-27T17:01:53.489Z,39.88
2023-03-27T17:04:20.849Z,39.86
2023-03-27T17:06:48.353Z,39.74
2023-03-27T17:09:16.510Z,40.12
2023-03-27T17:11:43.238Z,40.03
2023-03-27T17:14:10.874Z,40.21
2023-03-27T17:16:38.615Z,40.44
2023-03-27T17:19:05.469Z,40.41
2023-03-27T17:21:32.385Z,40.43
2023-03-27T17:24:00.958Z,40.47
2023-03-27T17:26:34.808Z,40.90
2023-03-27T17:29:03.488Z,40.58
2023-03-27T17:31:31.044Z,40.97
2023-03-27T17:33:57.937Z,41.05
2023-03-27T17:36:39.762Z,40.87
2023-03-27T17:39:10.547Z,41.13
2023-03-27T17:41:37.308Z,41.23
2023-03-27T17:44:05.645Z,41.74
2023-03-27T17:46:34.415Z,41.70
2023-03-27T17:49:01.744Z,41.93
2023-03-27T17:51:28.533Z,42.09
2023-03-27T17:53:55.721Z,42.02
2023-03-27T17:56:22.882Z,42.32
2023-03-27T17:58:50.287Z,42.20
2023-03-27T18:01:18.651Z,42.25
2023-03-27T18:03:46.228Z,42.21
2023-03-27T18:06:13.722Z,42.11
2023-03-27T18:08:41.246Z,41.98
2023-03-27T18:11:09.462Z,41.95
2023-03-27T18:13:36.398Z,41.66
2023-03-27T18:16:07.002Z,41.97
2023-03-27T18:18:34.207Z,41.92
2023-03-27T18:21:01.000Z,41.62
2023-03-27T18:23:28.159Z,41.96
2023-03-27T18:25:55.899Z,41.67
2023-03-27T18:28:23.989Z,42.09
2023-03-27T18:31:20.283Z,42.11
2023-03-27T18:33:47.065Z,41.69
2023-03-27T18:36:13.878Z,41.88
2023-03-27T18:38:41.020Z,41.73
2023-03-27T18:41:08.533Z,41.90
2023-03-27T18:43:35.329Z,41.73
2023-03-27T18:46:04.384Z,41.43
2023-03-27T18:48:31.278Z,41.57
2023-03-27T18:50:59.603Z,41.30
2023-03-27T18:53:26.604Z,41.45
2023-03-27T18:55:53.539Z,40.89
2023-03-27T18:58:21.515Z,40.87
2023-03-27T19:00:48.399Z,40.99
2023-03-27T19:03:18.026Z,40.50
2023-03-27T19:05:45.251Z,40.30
2023-03-27T19:08:12.282Z,39.98
2023-03-27T19:10:39.244Z,40.19
2023-03-27T19:13:06.053Z,40.30
2023-03-27T19:15:33.147Z,40.22
2023-03-27T19:17:59.894Z,40.22
2023-03-27T19:20:26.790Z,40.12
2023-03-27T19:22:53.727Z,40.53
2023-03-27T19:25:20.579Z,40.63
2023-03-27T19:27:47.294Z,40.25
2023-03-27T19:30:14.620Z,40.45
2023-03-27T19:32:41.515Z,40.38
2023-03-27T19:35:09.176Z,40.54
2023-03-27T19:37:36.588Z,40.49
2023-03-27T19:40:05.490Z,40.60
2023-03-27T19:42:32.507Z,41.15
2023-03-27T19:44:59.378Z,41.15
2023-03-27T19:47:26.381Z,40.81
2023-03-27T19:49:53.889Z,41.24
2023-03-27T19:52:20.966Z,41.37
2023-03-27T19:54:47.712Z,41.18
2023-03-27T19:57:14.838Z,41.48
2023-03-27T19:59:41.736Z,41.24
2023-03-27T20:02:11.403Z,41.26
2023-03-27T20:04:38.286Z,41.76
2023-03-27T20:07:07.288Z,41.97
2023-03-27T20:09:34.627Z,41.84
2023-03-27T20:12:01.494Z,41.57
2023-03-27T20:14:28.426Z,41.26
2023-03-27T20:16:55.246Z,40.77
2023-03-27T20:19:22.781Z,40.50
2023-03-27T20:21:49.593Z,40.11
2023-03-27T20:24:18.426Z,40.37
2023-03-27T20:26:48.504Z,39.81
2023-03-27T20:29:17.228Z,40.05
2023-03-27T20:31:44.089Z,39.60
2023-03-27T20:34:10.891Z,39.45
2023-03-27T20:36:39.329Z,39.48
2023-03-27T20:39:07.494Z,39.38
2023-03-27T20:41:39.144Z,39.73
2023-03-27T20:44:15.538Z,39.73
2023-03-27T20:46:51.604Z,40.01
2023-03-27T20:51:59.840Z,40.04
2023-03-27T20:54:27.471Z,39.90
2023-03-27T20:56:54.539Z,39.98
2023-03-27T20:59:21.711Z,40.51
2023-03-27T21:01:48.625Z,40.44
2023-03-27T21:04:15.578Z,41.17
2023-03-27T21:06:42.549Z,41.05
2023-03-27T21:09:09.739Z,41.94
2023-03-27T21:11:36.756Z,42.33
2023-03-27T21:14:03.736Z,42.18
2023-03-27T21:16:30.744Z,42.73
2023-03-27T21:18:57.538Z,42.95
2023-03-27T21:21:24.425Z,42.94
2023-03-27T21:23:53.955Z,43.07
2023-03-27T21:26:21.211Z,43.10
2023-03-27T21:28:51.540Z,43.58
2023-03-27T21:31:18.560Z,43.62
2023-03-27T21:33:45.494Z,43.93
2023-03-27T21:36:13.295Z,44.16
2023-03-27T21:38:40.408Z,44.24
2023-03-27T21:41:07.825Z,44.36
2023-03-27T21:43:34.756Z,44.66
2023-03-27T21:46:03.606Z,45.02
2023-03-27T21:48:31.391Z,44.98
2023-03-27T21:51:05.493Z,45.31
2023-03-27T21:53:32.410Z,45.32
2023-03-27T21:55:59.663Z,45.20
2023-03-27T21:58:26.938Z,45.41
2023-03-27T22:00:56.019Z,45.58
2023-03-27T22:03:23.052Z,45.84
2023-03-27T22:06:07.982Z,45.96
2023-03-27T22:08:37.246Z,45.83
2023-03-27T22:11:04.261Z,45.88
2023-03-27T22:13:31.247Z,45.98
2023-03-27T22:15:58.619Z,46.07
2023-03-27T22:18:25.793Z,46.06
2023-03-27T22:20:52.663Z,46.17
2023-03-27T22:23:19.664Z,46.34
2023-03-27T22:25:54.094Z,46.55
2023-03-27T22:28:21.335Z,46.49
2023-03-27T22:30:48.241Z,46.67
2023-03-27T22:33:15.189Z,47.00
2023-03-27T22:35:49.249Z,47.20
2023-03-27T22:38:16.419Z,46.94
2023-03-27T22:40:43.736Z,47.25
2023-03-27T22:43:11.097Z,47.13
2023-03-27T22:45:50.029Z,47.22
2023-03-27T22:48:17.011Z,47.46
2023-03-27T22:50:43.968Z,47.50
2023-03-27T22:53:11.159Z,47.27
2023-03-27T22:55:38.013Z,47.62
2023-03-27T22:58:04.832Z,47.53
2023-03-27T23:00:31.636Z,47.62
2023-03-27T23:02:58.722Z,47.97
2023-03-27T23:05:25.721Z,47.72
2023-03-27T23:07:52.583Z,47.81
2023-03-27T23:10:19.892Z,48.14
2023-03-27T23:12:46.804Z,48.17
2023-03-27T23:15:13.710Z,48.38
2023-03-27T23:17:40.725Z,47.92
2023-03-27T23:20:08.051Z,48.29
2023-03-27T23:22:34.906Z,48.46
2023-03-27T23:25:01.929Z,48.23
2023-03-27T23:27:28.857Z,48.13
2023-03-27T23:29:56.242Z,48.34
2023-03-27T23:32:23.336Z,48.24
2023-03-27T23:34:50.073Z,48.45
2023-03-27T23:37:16.785Z,47.82
2023-03-27T23:39:43.758Z,47.61
2023-03-27T23:42:10.810Z,47.69
2023-03-27T23:44:37.673Z,47.99
2023-03-27T23:47:04.709Z,47.59
2023-03-27T23:49:31.622Z,47.60
2023-03-27T23:51:58.421Z,48.06
2023-03-27T23:54:25.278Z,48.54
2023-03-27T23:56:52.183Z,49.29
2023-03-27T23:59:18.991Z,49.40
